Time;durP1;ratioP1;P1;durP2;ratioP2;P2;SDS_P1;SDS_P2;PMS_P1;PMS_P2;Temp;Humidity;BMP_temperature;BMP_pressure;BME280_temperature;BME280_humidity;BME280_pressure;Samples;Min_cycle;Max_cycle;Signal;HPM_P1;HPM_P2
2023/01/08 00:02:17;;;;;;;292.02;134.05;;;2.90;99.90;;;;;;5093228;28;20038;-77
2023/01/08 00:04:43;;;;;;;290.38;134.88;;;2.90;99.90;;;;;;5096452;28;20482;-78
2023/01/08 00:07:09;;;;;;;319.85;147.88;;;2.80;99.90;;;;;;5096856;28;20016;-77
2023/01/08 00:09:34;;;;;;;357.60;157.38;;;2.80;99.90;;;;;;5096666;28;20067;-79
2023/01/08 00:12:00;;;;;;;308.80;141.95;;;2.80;99.90;;;;;;5095312;28;20043;-77
2023/01/08 00:14:26;;;;;;;311.33;143.05;;;2.80;99.90;;;;;;5096380;28;20390;-78
2023/01/08 00:16:51;;;;;;;291.77;139.45;;;2.80;99.90;;;;;;5096282;28;20031;-77
2023/01/08 00:19:18;;;;;;;283.73;135.05;;;2.80;99.90;;;;;;5094918;28;20040;-79
2023/01/08 00:21:43;;;;;;;330.33;150.38;;;2.80;99.90;;;;;;5096246;28;20043;-78
2023/01/08 00:24:10;;;;;;;342.00;154.85;;;2.80;99.90;;;;;;5096270;28;20455;-78
2023/01/08 00:26:35;;;;;;;342.63;154.43;;;2.80;99.90;;;;;;5094913;28;20023;-77
2023/01/08 00:29:01;;;;;;;660.78;251.50;;;2.80;99.90;;;;;;5096317;28;20166;-78
2023/01/08 00:31:27;;;;;;;616.13;247.35;;;2.70;99.90;;;;;;5096336;28;20057;-78
2023/01/08 00:33:53;;;;;;;449.27;190.77;;;2.70;99.90;;;;;;5094882;28;20016;-77
2023/01/08 00:36:22;;;;;;;332.45;143.15;;;2.70;99.90;;;;;;5095779;28;20344;-79
2023/01/08 00:38:48;;;;;;;287.27;128.32;;;2.70;99.90;;;;;;5094687;28;20385;-79
2023/01/08 00:41:15;;;;;;;269.05;118.63;;;2.70;99.90;;;;;;5095845;28;20016;-77
2023/01/08 00:43:41;;;;;;;323.42;150.32;;;2.70;99.90;;;;;;5096286;28;20035;-77
2023/01/08 00:46:07;;;;;;;318.42;145.50;;;2.70;99.90;;;;;;5095632;28;20024;-77
2023/01/08 00:48:37;;;;;;;293.20;135.55;;;2.70;99.90;;;;;;5095405;28;20386;-77
2023/01/08 00:51:04;;;;;;;289.23;134.05;;;2.80;99.90;;;;;;5096249;28;20057;-78
2023/01/08 00:53:31;;;;;;;302.40;139.70;;;2.80;99.90;;;;;;5095204;28;20149;-78
2023/01/08 00:56:02;;;;;;;351.30;160.77;;;2.80;99.90;;;;;;5075274;28;20478;-77
2023/01/08 00:58:29;;;;;;;343.23;157.32;;;2.80;99.90;;;;;;5075518;28;20077;-77
2023/01/08 01:00:55;;;;;;;344.45;149.80;;;2.70;99.90;;;;;;5075222;28;20028;-78
2023/01/08 01:03:21;;;;;;;312.48;138.40;;;2.70;99.90;;;;;;5075247;28;20062;-77
2023/01/08 01:05:46;;;;;;;295.55;133.90;;;2.70;99.90;;;;;;5075134;28;20104;-78
2023/01/08 01:08:12;;;;;;;276.27;125.57;;;2.70;99.90;;;;;;5075020;28;20020;-78
2023/01/08 01:10:38;;;;;;;259.33;118.82;;;2.70;99.90;;;;;;5075041;28;20024;-79
2023/01/08 01:13:05;;;;;;;242.88;114.13;;;2.70;99.90;;;;;;5073860;28;20021;-77
2023/01/08 01:15:31;;;;;;;233.02;109.18;;;2.60;99.90;;;;;;5075333;28;20471;-78
2023/01/08 01:17:57;;;;;;;212.70;98.40;;;2.60;99.90;;;;;;5075034;28;20261;-79
2023/01/08 01:20:22;;;;;;;226.57;102.93;;;2.60;99.90;;;;;;5074581;28;20037;-77
2023/01/08 01:22:49;;;;;;;216.63;99.53;;;2.60;99.90;;;;;;5074374;28;20111;-78
2023/01/08 01:25:15;;;;;;;211.15;97.82;;;2.60;99.90;;;;;;5074146;28;20028;-77
2023/01/08 01:27:41;;;;;;;212.25;94.50;;;2.60;99.90;;;;;;5072937;28;20490;-78
2023/01/08 01:30:08;;;;;;;244.02;103.70;;;2.60;99.90;;;;;;5074379;28;20020;-77
2023/01/08 01:32:34;;;;;;;208.80;92.03;;;2.50;99.90;;;;;;5074379;28;20375;-76
2023/01/08 01:35:00;;;;;;;204.15;88.47;;;2.50;99.90;;;;;;5073092;28;20020;-77
2023/01/08 01:37:26;;;;;;;221.38;94.22;;;2.50;99.90;;;;;;5072613;28;20028;-77
2023/01/08 01:39:53;;;;;;;226.82;102.05;;;2.50;99.90;;;;;;5074266;28;20023;-79
2023/01/08 01:45:28;;;;;;;229.52;102.00;;;2.50;99.90;;;;;;5074294;28;20387;-78
2023/01/08 01:48:09;;;;;;;229.45;104.20;;;2.50;99.90;;;;;;5073336;28;20031;-77
2023/01/08 01:50:45;;;;;;;238.65;101.03;;;2.50;99.90;;;;;;5074298;28;20085;-78
2023/01/08 01:53:31;;;;;;;254.05;106.40;;;2.50;99.90;;;;;;5074529;28;20487;-78
2023/01/08 01:55:58;;;;;;;264.00;110.55;;;2.50;99.90;;;;;;5074166;28;20028;-77
2023/01/08 01:58:26;;;;;;;276.35;115.13;;;2.50;99.90;;;;;;5074493;28;20012;-78
2023/01/08 02:00:54;;;;;;;258.85;110.10;;;2.50;99.90;;;;;;5073960;28;20375;-77
2023/01/08 02:03:23;;;;;;;219.65;104.32;;;2.50;99.90;;;;;;5074317;28;20035;-77
2023/01/08 02:06:10;;;;;;;264.65;111.68;;;2.50;99.90;;;;;;5074248;28;20029;-77
2023/01/08 02:09:18;;;;;;;303.67;132.57;;;2.50;99.90;;;;;;5074436;28;20021;-77
2023/01/08 02:12:24;;;;;;;335.50;141.43;;;2.50;99.90;;;;;;5015106;28;20052;-77
2023/01/08 02:15:06;;;;;;;329.27;140.07;;;2.50;99.90;;;;;;5031711;28;20648;-78
2023/01/08 02:17:51;;;;;;;329.08;141.77;;;2.50;99.90;;;;;;5015211;28;20391;-76
2023/01/08 02:20:31;;;;;;;326.73;138.60;;;2.50;99.90;;;;;;5015092;28;20053;-77
2023/01/08 02:23:25;;;;;;;265.83;122.70;;;2.40;99.90;;;;;;5031587;28;20034;-77
2023/01/08 02:26:30;;;;;;;271.73;119.90;;;2.40;99.90;;;;;;5031544;28;20492;-77
2023/01/08 02:29:06;;;;;;;313.77;135.68;;;2.40;99.90;;;;;;5031620;28;20037;-77
2023/01/08 02:31:34;;;;;;;329.77;142.50;;;2.40;99.90;;;;;;5015617;28;20067;-76
2023/01/08 02:34:00;;;;;;;317.98;138.02;;;2.40;99.90;;;;;;5051518;28;20031;-78
2023/01/08 02:36:35;;;;;;;279.52;130.93;;;2.40;99.90;;;;;;5034649;28;20521;-77
2023/01/08 02:39:26;;;;;;;276.65;129.52;;;2.40;99.90;;;;;;5034547;28;20523;-77
2023/01/08 02:42:27;;;;;;;277.35;123.95;;;2.40;99.90;;;;;;5051451;28;20037;-78
2023/01/08 02:45:25;;;;;;;247.52;118.10;;;2.40;99.90;;;;;;5051348;28;20052;-76
2023/01/08 02:47:55;;;;;;;261.30;123.00;;;2.40;99.90;;;;;;5058535;28;20434;-76
2023/01/08 02:50:34;;;;;;;256.55;119.53;;;2.40;99.90;;;;;;5077529;28;20020;-75
2023/01/08 02:53:09;;;;;;;272.70;120.15;;;2.40;99.90;;;;;;5080317;28;20016;-76
2023/01/08 02:55:38;;;;;;;255.23;117.93;;;2.30;99.90;;;;;;5079742;28;20016;-77
2023/01/08 02:58:04;;;;;;;248.18;116.00;;;2.30;99.90;;;;;;5079506;28;20364;-77
2023/01/08 03:00:31;;;;;;;232.98;107.45;;;2.30;99.90;;;;;;5079549;28;20027;-76
2023/01/08 03:03:16;;;;;;;225.98;107.45;;;2.30;99.90;;;;;;5078449;28;20077;-76
2023/01/08 03:05:47;;;;;;;236.32;109.60;;;2.30;99.90;;;;;;5079400;28;20103;-77
2023/01/08 03:08:13;;;;;;;240.87;116.40;;;2.30;99.90;;;;;;5078728;28;20070;-76
2023/01/08 03:10:43;;;;;;;242.77;113.78;;;2.30;99.90;;;;;;5079357;28;20394;-77
2023/01/08 03:13:19;;;;;;;241.95;110.65;;;2.20;99.90;;;;;;5078264;28;20426;-76
2023/01/08 03:15:54;;;;;;;221.77;109.10;;;2.20;99.90;;;;;;5079872;28;20537;-76
2023/01/08 03:18:26;;;;;;;224.15;106.93;;;2.20;99.90;;;;;;5078260;28;20028;-76
2023/01/08 03:20:52;;;;;;;221.80;104.43;;;2.10;99.90;;;;;;5079294;28;20040;-76
2023/01/08 03:23:19;;;;;;;251.48;118.32;;;2.10;99.90;;;;;;5079737;28;20031;-77
2023/01/08 03:25:47;;;;;;;298.90;140.13;;;2.10;99.90;;;;;;5078125;28;20024;-78
2023/01/08 03:28:21;;;;;;;299.80;141.88;;;2.20;99.90;;;;;;5079459;28;20455;-76
2023/01/08 03:30:49;;;;;;;256.15;122.28;;;2.20;99.90;;;;;;5079940;28;20025;-76
2023/01/08 03:33:16;;;;;;;229.07;109.82;;;2.30;99.90;;;;;;5079384;28;20032;-77
2023/01/08 03:35:45;;;;;;;214.55;101.82;;;2.20;99.90;;;;;;5079555;28;20048;-77
2023/01/08 03:38:28;;;;;;;202.32;98.95;;;2.30;99.90;;;;;;5079644;28;20027;-77
2023/01/08 03:41:02;;;;;;;247.25;110.90;;;2.30;99.90;;;;;;5078018;28;20522;-76
2023/01/08 03:43:28;;;;;;;207.25;102.35;;;2.40;99.90;;;;;;5079240;28;20025;-76
2023/01/08 03:46:02;;;;;;;201.93;101.05;;;2.40;99.90;;;;;;5079617;28;20123;-76
2023/01/08 03:48:31;;;;;;;215.25;103.25;;;2.40;99.90;;;;;;5078929;28;20340;-78
2023/01/08 03:50:56;;;;;;;206.07;102.38;;;2.40;99.90;;;;;;5078293;28;20027;-76
2023/01/08 03:53:22;;;;;;;214.73;105.05;;;2.40;99.90;;;;;;5078274;28;20446;-77
2023/01/08 03:55:48;;;;;;;210.45;103.63;;;2.30;99.90;;;;;;5079302;28;20448;-78
2023/01/08 03:58:14;;;;;;;203.43;99.95;;;2.30;99.90;;;;;;5078808;28;20020;-78
2023/01/08 04:00:40;;;;;;;219.48;104.38;;;2.30;99.90;;;;;;5077575;28;20447;-77
2023/01/08 04:03:06;;;;;;;209.73;101.40;;;2.30;99.90;;;;;;5075066;28;20031;-78
2023/01/08 04:05:32;;;;;;;211.52;100.30;;;2.30;99.90;;;;;;5075364;28;20024;-76
2023/01/08 04:07:58;;;;;;;235.23;111.43;;;2.30;99.90;;;;;;5076203;28;20463;-77
2023/01/08 04:10:25;;;;;;;231.65;109.40;;;2.30;99.90;;;;;;5076157;28;20391;-75
2023/01/08 04:12:50;;;;;;;235.25;109.43;;;2.30;99.90;;;;;;5074976;28;20455;-76
2023/01/08 04:15:16;;;;;;;281.27;125.45;;;2.30;99.90;;;;;;5076724;28;20066;-77
2023/01/08 04:17:42;;;;;;;282.48;126.43;;;2.30;99.90;;;;;;5076278;28;20032;-76
2023/01/08 04:20:08;;;;;;;305.98;130.60;;;2.30;99.90;;;;;;5075815;28;20387;-76
2023/01/08 04:22:34;;;;;;;295.55;132.13;;;2.30;99.90;;;;;;5075720;28;20028;-77
2023/01/08 04:25:00;;;;;;;300.38;130.55;;;2.30;99.90;;;;;;5075394;28;20039;-78
2023/01/08 04:27:26;;;;;;;291.75;132.65;;;2.30;99.90;;;;;;5068662;28;20452;-76
2023/01/08 04:29:51;;;;;;;280.88;125.57;;;2.20;99.90;;;;;;5075368;28;20561;-77
2023/01/08 04:32:17;;;;;;;274.45;124.75;;;2.20;99.90;;;;;;5075379;28;20099;-77
2023/01/08 04:34:43;;;;;;;267.65;123.95;;;2.30;99.90;;;;;;5075448;28;20382;-76
2023/01/08 04:37:09;;;;;;;248.95;115.93;;;2.20;99.90;;;;;;5074887;28;20025;-77
2023/01/08 04:39:34;;;;;;;235.90;112.32;;;2.20;99.90;;;;;;5075441;28;20081;-77
2023/01/08 04:42:00;;;;;;;239.45;111.68;;;2.20;99.90;;;;;;5075322;28;20362;-77
2023/01/08 04:44:26;;;;;;;237.20;114.65;;;2.20;99.90;;;;;;5075414;28;20028;-76
2023/01/08 04:46:51;;;;;;;246.70;116.00;;;2.20;99.90;;;;;;5075336;28;20025;-77
2023/01/08 04:49:17;;;;;;;241.63;114.45;;;2.20;99.90;;;;;;5075045;28;20051;-77
2023/01/08 04:51:43;;;;;;;253.65;120.20;;;2.30;99.90;;;;;;5074330;28;20081;-78
2023/01/08 04:54:09;;;;;;;241.05;117.07;;;2.30;99.90;;;;;;5074162;28;20074;-76
2023/01/08 04:56:34;;;;;;;233.85;110.30;;;2.30;99.90;;;;;;5074850;28;20367;-77
2023/01/08 04:59:00;;;;;;;224.30;110.43;;;2.30;99.90;;;;;;5074665;28;20028;-76
2023/01/08 05:01:27;;;;;;;225.50;113.43;;;2.30;99.90;;;;;;5075152;28;20104;-78
2023/01/08 05:04:01;;;;;;;227.15;112.18;;;2.30;99.90;;;;;;5073922;28;20032;-76
2023/01/08 05:06:29;;;;;;;226.45;110.68;;;2.30;99.90;;;;;;5072452;28;20029;-76
2023/01/08 05:08:55;;;;;;;219.63;110.43;;;2.30;99.90;;;;;;5074634;28;20051;-76
2023/01/08 05:11:21;;;;;;;231.60;114.72;;;2.30;99.90;;;;;;5075070;28;20047;-77
2023/01/08 05:13:48;;;;;;;234.00;115.28;;;2.30;99.90;;;;;;5074048;28;20039;-77
2023/01/08 05:16:15;;;;;;;218.02;110.28;;;2.30;99.90;;;;;;5074500;28;20035;-76
2023/01/08 05:18:40;;;;;;;274.30;136.85;;;2.30;99.90;;;;;;5074619;28;20021;-77
2023/01/08 05:21:06;;;;;;;317.10;161.85;;;2.30;99.90;;;;;;5074882;28;20412;-77
2023/01/08 05:23:33;;;;;;;269.63;132.82;;;2.30;99.90;;;;;;5073238;28;20407;-78
2023/01/08 05:26:00;;;;;;;255.93;129.57;;;2.20;99.90;;;;;;5074297;28;20028;-76
2023/01/08 05:28:27;;;;;;;408.05;209.38;;;2.20;99.90;;;;;;5074294;28;20048;-77
2023/01/08 05:30:53;;;;;;;268.80;129.02;;;2.10;99.90;;;;;;5074080;28;20024;-76
2023/01/08 05:33:19;;;;;;;250.60;121.55;;;2.20;99.90;;;;;;5074157;28;20036;-77
2023/01/08 05:35:45;;;;;;;288.15;127.53;;;2.20;99.90;;;;;;5072710;28;20031;-77
2023/01/08 05:38:10;;;;;;;290.08;130.27;;;2.20;99.90;;;;;;5073860;28;20020;-77
2023/01/08 05:40:36;;;;;;;292.70;132.45;;;2.10;99.90;;;;;;5074719;28;20032;-77
2023/01/08 05:43:04;;;;;;;271.13;126.68;;;2.10;99.90;;;;;;5074662;28;20020;-76
2023/01/08 05:45:30;;;;;;;267.20;125.32;;;2.10;99.90;;;;;;5074572;28;20028;-76
2023/01/08 05:47:55;;;;;;;346.15;168.18;;;2.10;99.90;;;;;;5074481;28;20043;-76
2023/01/08 05:50:21;;;;;;;350.90;164.63;;;2.00;99.90;;;;;;5074982;28;20452;-77
2023/01/08 05:52:47;;;;;;;402.80;196.00;;;2.00;99.90;;;;;;5073227;28;20021;-77
2023/01/08 05:55:12;;;;;;;334.65;154.95;;;2.00;99.90;;;;;;5074313;28;20017;-76
2023/01/08 05:57:38;;;;;;;321.08;149.15;;;2.00;99.90;;;;;;5074415;28;20397;-75
2023/01/08 06:00:07;;;;;;;333.67;151.50;;;2.10;99.90;;;;;;5074134;28;20032;-77
2023/01/08 06:02:33;;;;;;;333.02;152.88;;;2.10;99.90;;;;;;5073418;28;20016;-77
2023/01/08 06:04:58;;;;;;;271.23;129.57;;;2.10;99.90;;;;;;5067131;28;20462;-77
2023/01/08 06:07:24;;;;;;;326.15;147.32;;;2.10;99.90;;;;;;5073784;28;20016;-77
2023/01/08 06:09:50;;;;;;;299.70;142.85;;;2.10;99.90;;;;;;5073164;28;20024;-77
2023/01/08 06:12:16;;;;;;;319.80;147.60;;;2.00;99.90;;;;;;5073204;28;20047;-76
2023/01/08 06:14:41;;;;;;;299.67;145.30;;;2.00;99.90;;;;;;5073551;28;20029;-76
2023/01/08 06:17:07;;;;;;;298.95;142.43;;;2.00;99.90;;;;;;5073069;28;20015;-76
2023/01/08 06:19:33;;;;;;;301.48;147.27;;;2.00;99.90;;;;;;5073301;28;20436;-77
2023/01/08 06:21:58;;;;;;;292.48;142.05;;;2.00;99.90;;;;;;5072967;28;20037;-78
2023/01/08 06:24:24;;;;;;;316.42;150.40;;;2.00;99.90;;;;;;5071248;28;20463;-76
2023/01/08 06:26:50;;;;;;;293.23;141.02;;;2.00;99.90;;;;;;5072980;28;20028;-77
2023/01/08 06:29:15;;;;;;;294.33;143.60;;;1.90;99.90;;;;;;5071945;28;20536;-77
2023/01/08 06:31:41;;;;;;;258.17;126.82;;;1.90;99.90;;;;;;5073389;28;20033;-77
2023/01/08 06:34:07;;;;;;;239.65;116.03;;;1.90;99.90;;;;;;5073315;28;20077;-77
2023/01/08 06:36:32;;;;;;;366.98;164.95;;;1.90;99.90;;;;;;5072264;28;20020;-76
2023/01/08 06:38:58;;;;;;;311.40;145.00;;;1.80;99.90;;;;;;5073581;28;20029;-76
2023/01/08 06:41:24;;;;;;;328.33;148.57;;;1.80;99.90;;;;;;5073267;28;20367;-77
2023/01/08 06:43:49;;;;;;;293.00;133.85;;;1.80;99.90;;;;;;5073617;28;20043;-78
2023/01/08 06:46:15;;;;;;;358.75;155.70;;;1.70;99.90;;;;;;5073247;28;20025;-75
2023/01/08 06:48:41;;;;;;;560.53;235.93;;;1.70;99.90;;;;;;5073666;28;20024;-77
2023/01/08 06:51:07;;;;;;;374.58;178.43;;;1.70;99.90;;;;;;5073260;28;20020;-75
2023/01/08 06:53:33;;;;;;;383.42;185.02;;;1.70;99.90;;;;;;5071284;28;20367;-76
2023/01/08 06:55:58;;;;;;;440.90;205.85;;;1.70;99.90;;;;;;5071778;28;20028;-76
2023/01/08 06:58:25;;;;;;;475.15;225.60;;;1.80;99.90;;;;;;5071006;28;20375;-77
2023/01/08 07:00:51;;;;;;;463.40;219.10;;;1.90;99.90;;;;;;5072132;28;20471;-76
2023/01/08 07:03:17;;;;;;;437.05;205.90;;;2.00;99.90;;;;;;5071415;28;20059;-77
2023/01/08 07:05:42;;;;;;;396.38;187.65;;;2.00;99.90;;;;;;5072670;28;20024;-76
2023/01/08 07:08:16;;;;;;;362.30;177.45;;;2.10;99.90;;;;;;5072620;28;20029;-76
2023/01/08 07:10:42;;;;;;;271.38;132.48;;;2.60;99.90;;;;;;5069526;28;20402;-78
2023/01/08 07:13:09;;;;;;;287.00;134.18;;;3.10;99.90;;;;;;5071613;28;20460;-78
2023/01/08 07:15:41;;;;;;;361.88;166.52;;;3.50;99.90;;;;;;5071846;28;20029;-79
2023/01/08 07:18:09;;;;;;;429.73;204.75;;;3.70;99.90;;;;;;5072829;28;20059;-76
2023/01/08 07:20:37;;;;;;;426.70;195.90;;;3.90;99.90;;;;;;5072183;28;20051;-77
2023/01/08 07:23:04;;;;;;;464.65;215.65;;;4.10;99.90;;;;;;5071353;28;20029;-77
2023/01/08 07:25:30;;;;;;;397.08;190.05;;;4.40;99.90;;;;;;5072905;28;20028;-77
2023/01/08 07:27:56;;;;;;;356.10;168.85;;;4.60;99.90;;;;;;5071755;28;20513;-77
2023/01/08 07:30:22;;;;;;;193.90;95.13;;;4.70;99.90;;;;;;5072687;28;20017;-77
2023/01/08 07:32:47;;;;;;;119.90;61.67;;;4.70;99.90;;;;;;5072113;28;20054;-78
2023/01/08 07:35:13;;;;;;;113.30;54.60;;;4.70;99.90;;;;;;5072538;28;20048;-77
2023/01/08 07:37:40;;;;;;;114.43;59.10;;;4.80;99.90;;;;;;5076266;28;20024;-77
2023/01/08 07:40:07;;;;;;;134.65;68.88;;;4.80;99.90;;;;;;5076421;28;20059;-77
2023/01/08 07:42:33;;;;;;;110.75;59.88;;;4.90;99.90;;;;;;5076882;28;20051;-77
2023/01/08 07:44:59;;;;;;;117.53;58.97;;;5.00;99.90;;;;;;5076247;28;20031;-77
2023/01/08 07:47:24;;;;;;;83.72;44.00;;;5.20;99.90;;;;;;5076825;28;20099;-78
2023/01/08 07:49:50;;;;;;;83.13;41.15;;;5.20;99.90;;;;;;5076771;28;20021;-79
2023/01/08 07:52:16;;;;;;;87.88;43.88;;;5.30;99.90;;;;;;5076593;28;20404;-78
2023/01/08 07:54:41;;;;;;;88.35;44.15;;;5.20;99.90;;;;;;5075260;28;20099;-78
2023/01/08 07:57:07;;;;;;;205.40;81.38;;;5.20;99.90;;;;;;5076296;28;20367;-77
2023/01/08 07:59:33;;;;;;;117.10;56.97;;;5.20;99.90;;;;;;5076956;28;20021;-77
2023/01/08 08:01:58;;;;;;;115.38;54.88;;;5.20;99.90;;;;;;5075604;28;20391;-77
2023/01/08 08:04:24;;;;;;;132.38;69.20;;;5.40;99.90;;;;;;5075092;28;20111;-79
2023/01/08 08:06:50;;;;;;;163.68;77.47;;;5.30;99.90;;;;;;5075902;28;20028;-77
2023/01/08 08:09:16;;;;;;;215.48;92.90;;;5.50;99.90;;;;;;5074718;28;20040;-78
2023/01/08 08:11:41;;;;;;;141.63;69.40;;;5.60;99.90;;;;;;5076073;28;20032;-77
2023/01/08 08:14:07;;;;;;;184.43;88.80;;;5.70;99.90;;;;;;5075642;28;20027;-77
2023/01/08 08:16:33;;;;;;;135.02;75.15;;;5.80;99.90;;;;;;5075984;28;20021;-78
2023/01/08 08:18:59;;;;;;;301.27;154.88;;;6.00;99.90;;;;;;5075410;28;20035;-77
2023/01/08 08:21:25;;;;;;;207.13;102.40;;;6.00;99.90;;;;;;5075564;28;20033;-78
2023/01/08 08:23:51;;;;;;;194.35;97.60;;;6.10;99.90;;;;;;5075813;28;20036;-76
2023/01/08 08:26:17;;;;;;;253.75;127.20;;;6.10;99.90;;;;;;5074218;28;20024;-78
2023/01/08 08:28:42;;;;;;;300.73;151.18;;;6.50;99.90;;;;;;5075666;28;20367;-79
2023/01/08 08:31:08;;;;;;;257.55;129.88;;;6.70;99.90;;;;;;5075102;28;20036;-78
2023/01/08 08:33:34;;;;;;;256.17;128.43;;;6.60;99.90;;;;;;5075010;28;20050;-79
2023/01/08 08:36:00;;;;;;;222.27;116.47;;;6.70;99.90;;;;;;5074453;28;20016;-79
2023/01/08 08:38:26;;;;;;;221.32;113.15;;;6.90;99.90;;;;;;5078580;28;20447;-78
2023/01/08 08:40:51;;;;;;;268.15;137.80;;;7.00;99.90;;;;;;5096021;28;20044;-80
2023/01/08 08:43:18;;;;;;;298.77;154.40;;;7.10;99.90;;;;;;5085861;28;20099;-79
2023/01/08 08:45:44;;;;;;;256.95;136.30;;;7.20;99.90;;;;;;5075758;28;20020;-80
2023/01/08 08:48:10;;;;;;;251.65;134.90;;;7.30;99.90;;;;;;5074897;28;20397;-79
2023/01/08 08:50:38;;;;;;;248.40;130.13;;;7.40;99.90;;;;;;5075281;28;20070;-79
2023/01/08 08:53:05;;;;;;;286.00;148.05;;;7.40;99.90;;;;;;5075589;28;20028;-79
2023/01/08 08:55:31;;;;;;;257.52;129.45;;;7.70;99.90;;;;;;5075738;28;20447;-78
2023/01/08 08:58:13;;;;;;;221.13;107.88;;;7.80;99.90;;;;;;5075412;28;20070;-79
2023/01/08 09:00:41;;;;;;;198.32;103.68;;;8.00;99.90;;;;;;5074230;28;19901;-77
2023/01/08 09:03:13;;;;;;;218.80;104.93;;;8.10;99.90;;;;;;5074572;28;20034;-78
2023/01/08 09:05:39;;;;;;;206.10;107.78;;;8.40;99.90;;;;;;5075321;28;20024;-80
2023/01/08 09:08:05;;;;;;;146.05;72.90;;;8.60;99.90;;;;;;5074629;28;20038;-79
2023/01/08 09:10:31;;;;;;;181.65;94.53;;;8.70;99.90;;;;;;5072759;28;20017;-78
2023/01/08 09:12:56;;;;;;;185.10;95.28;;;8.90;99.90;;;;;;5073429;28;20107;-78
2023/01/08 09:15:22;;;;;;;225.15;111.28;;;9.00;99.90;;;;;;5075140;28;20019;-78
2023/01/08 09:17:54;;;;;;;207.60;99.75;;;9.10;99.90;;;;;;5074618;28;20099;-79
2023/01/08 09:20:20;;;;;;;198.63;98.65;;;9.10;99.90;;;;;;5074921;28;20033;-79
2023/01/08 09:22:46;;;;;;;210.80;104.40;;;9.20;99.90;;;;;;5073466;28;20060;-78
2023/01/08 09:25:12;;;;;;;192.02;99.93;;;9.40;99.90;;;;;;5072968;28;20404;-79
2023/01/08 09:27:38;;;;;;;308.27;171.02;;;9.60;99.90;;;;;;5074425;28;19900;-79
2023/01/08 09:30:04;;;;;;;181.93;100.05;;;9.90;99.90;;;;;;5075217;28;20043;-80
2023/01/08 09:32:30;;;;;;;189.55;100.40;;;10.00;99.90;;;;;;5074312;28;20035;-78
2023/01/08 09:35:00;;;;;;;217.07;111.47;;;10.30;99.90;;;;;;5073645;28;20020;-79
2023/01/08 09:37:26;;;;;;;218.15;110.85;;;10.50;99.90;;;;;;5073242;28;20028;-79
2023/01/08 09:39:51;;;;;;;212.70;103.22;;;10.90;99.90;;;;;;5074517;28;20025;-76
2023/01/08 09:42:22;;;;;;;215.30;102.75;;;11.10;99.90;;;;;;5074528;28;20024;-76
2023/01/08 09:44:52;;;;;;;172.25;91.32;;;11.40;99.90;;;;;;5074473;28;20035;-76
2023/01/08 09:47:36;;;;;;;138.00;76.43;;;11.90;99.90;;;;;;5074655;28;20023;-76
2023/01/08 09:50:06;;;;;;;165.95;86.50;;;12.20;99.90;;;;;;5074203;28;20103;-77
2023/01/08 09:52:32;;;;;;;164.60;85.68;;;12.30;99.90;;;;;;5080040;28;20020;-78
2023/01/08 09:54:59;;;;;;;178.73;92.85;;;12.50;99.90;;;;;;5079730;28;20466;-76
2023/01/08 09:57:26;;;;;;;177.77;87.38;;;13.20;99.90;;;;;;5073419;28;20028;-76
2023/01/08 09:59:52;;;;;;;205.18;100.20;;;13.80;99.90;;;;;;5094708;28;20024;-76
2023/01/08 10:02:23;;;;;;;131.80;72.70;;;14.10;99.10;;;;;;5081882;28;20111;-76
2023/01/08 10:04:56;;;;;;;144.90;77.70;;;14.50;97.30;;;;;;5080527;28;20463;-76
2023/01/08 10:07:26;;;;;;;170.85;88.72;;;14.60;95.20;;;;;;5054244;28;20035;-75
2023/01/08 10:09:53;;;;;;;150.50;80.55;;;15.00;93.30;;;;;;5083742;28;20028;-77
2023/01/08 10:12:28;;;;;;;167.98;101.70;;;15.60;92.90;;;;;;5072807;28;20060;-77
2023/01/08 10:15:06;;;;;;;117.55;67.75;;;15.60;90.70;;;;;;5073263;28;20036;-76
2023/01/08 10:17:44;;;;;;;97.88;51.38;;;15.80;89.70;;;;;;5071650;28;20020;-77
2023/01/08 10:20:19;;;;;;;99.97;57.08;;;16.20;85.90;;;;;;5071348;28;20040;-76
2023/01/08 10:22:46;;;;;;;81.72;43.75;;;16.30;85.10;;;;;;5078993;28;20028;-78
2023/01/08 10:25:21;;;;;;;72.88;43.83;;;16.40;82.30;;;;;;5072995;28;20111;-78
2023/01/08 10:27:52;;;;;;;57.92;35.58;;;17.20;80.30;;;;;;5071249;28;20463;-78
2023/01/08 10:30:27;;;;;;;85.93;52.35;;;17.60;77.40;;;;;;5072995;28;20470;-77
2023/01/08 10:32:55;;;;;;;71.82;41.35;;;17.90;74.00;;;;;;5072641;28;20098;-78
2023/01/08 10:35:33;;;;;;;68.63;38.45;;;18.60;72.30;;;;;;5071469;28;20035;-77
2023/01/08 10:37:59;;;;;;;65.90;37.40;;;19.10;69.80;;;;;;5072425;28;20033;-77
2023/01/08 10:40:30;;;;;;;44.70;27.33;;;19.60;67.40;;;;;;5073110;28;20036;-78
2023/01/08 10:43:17;;;;;;;68.07;37.33;;;19.30;63.60;;;;;;5070051;28;20459;-78
2023/01/08 10:45:53;;;;;;;63.45;33.05;;;19.50;64.10;;;;;;5068166;28;20031;-78
2023/01/08 10:48:20;;;;;;;28.98;17.15;;;19.60;60.60;;;;;;5071292;28;20051;-77
2023/01/08 10:50:46;;;;;;;68.88;37.63;;;19.50;59.00;;;;;;5072052;28;20029;-78
2023/01/08 10:53:27;;;;;;;49.47;23.48;;;19.40;57.20;;;;;;5071176;28;20028;-77
2023/01/08 10:56:01;;;;;;;29.23;17.53;;;19.50;56.20;;;;;;5051424;28;20068;-77
2023/01/08 10:58:28;;;;;;;48.13;28.23;;;19.00;55.80;;;;;;5062939;28;20020;-77
2023/01/08 11:00:56;;;;;;;46.25;27.70;;;19.50;55.80;;;;;;5071548;28;20021;-78
2023/01/08 11:03:30;;;;;;;48.28;30.05;;;19.20;55.70;;;;;;5072828;28;20108;-77
2023/01/08 11:05:56;;;;;;;62.35;37.30;;;19.50;54.50;;;;;;5072516;28;20036;-78
2023/01/08 11:08:23;;;;;;;72.88;46.72;;;19.40;55.00;;;;;;5072572;28;20398;-77
2023/01/08 11:11:00;;;;;;;48.92;27.00;;;19.40;54.20;;;;;;5071981;28;20025;-77
2023/01/08 11:13:27;;;;;;;29.38;17.85;;;19.30;54.30;;;;;;5076502;28;20024;-75
2023/01/08 11:16:09;;;;;;;23.13;13.55;;;19.40;53.20;;;;;;5076583;28;20082;-76
2023/01/08 11:18:45;;;;;;;27.05;14.57;;;19.30;53.00;;;;;;5077362;28;20020;-76
2023/01/08 11:21:21;;;;;;;52.85;27.98;;;19.10;52.90;;;;;;5076633;28;20037;-76
2023/01/08 11:23:59;;;;;;;28.48;18.77;;;19.10;54.20;;;;;;5076366;28;20028;-76
2023/01/08 11:26:26;;;;;;;39.17;23.67;;;19.40;53.80;;;;;;5059434;28;20056;-77
2023/01/08 11:29:14;;;;;;;21.65;13.40;;;19.40;53.20;;;;;;5077330;28;20020;-78
2023/01/08 11:31:49;;;;;;;57.75;33.92;;;19.30;51.50;;;;;;5075958;28;20467;-76
2023/01/08 11:34:21;;;;;;;31.80;18.08;;;19.30;52.00;;;;;;5076125;28;20078;-76
2023/01/08 11:36:49;;;;;;;;;;;19.30;51.70;;;;;;5076399;28;20020;-77
2023/01/08 11:39:17;;;;;;;19.15;12.27;;;19.40;50.40;;;;;;5075647;28;19977;-78
2023/01/08 11:42:10;;;;;;;31.45;15.43;;;19.30;49.90;;;;;;5075261;28;20452;-77
2023/01/08 11:45:02;;;;;;;15.80;11.43;;;18.80;50.50;;;;;;5074668;28;20459;-77
2023/01/08 11:47:46;;;;;;;33.08;19.73;;;19.00;51.60;;;;;;5075010;28;20012;-76
2023/01/08 11:50:45;;;;;;;25.80;13.05;;;18.10;52.50;;;;;;5076388;28;20021;-77
2023/01/08 11:53:42;;;;;;;29.48;19.13;;;18.40;51.80;;;;;;5072412;28;20040;-76
2023/01/08 11:56:13;;;;;;;35.08;20.02;;;18.00;51.50;;;;;;5075329;28;20119;-77
2023/01/08 11:59:02;;;;;;;46.67;23.95;;;17.80;51.50;;;;;;5074474;28;20028;-78
2023/01/08 12:01:34;;;;;;;28.65;17.77;;;17.70;52.40;;;;;;5076082;28;20024;-78
2023/01/08 12:04:15;;;;;;;36.10;21.30;;;17.60;52.30;;;;;;5075826;28;20028;-78
2023/01/08 12:06:46;;;;;;;20.73;14.18;;;17.30;53.00;;;;;;5075252;28;20063;-78
2023/01/08 12:09:18;;;;;;;23.63;13.30;;;17.00;53.70;;;;;;5075884;28;20027;-77
2023/01/08 12:11:54;;;;;;;49.10;28.98;;;16.70;54.30;;;;;;5075534;28;20051;-78
2023/01/08 12:14:20;;;;;;;35.60;20.42;;;16.50;55.80;;;;;;5074629;28;20112;-79
2023/01/08 12:17:10;;;;;;;53.28;30.13;;;16.30;56.90;;;;;;5085326;28;20043;-78
2023/01/08 12:20:13;;;;;;;78.65;38.72;;;16.10;56.70;;;;;;5055370;28;20167;-79
2023/01/08 12:23:08;;;;;;;140.68;70.22;;;15.80;57.40;;;;;;5078613;28;20036;-79
2023/01/08 12:25:58;;;;;;;70.38;37.22;;;15.70;59.00;;;;;;5041025;28;20098;-79
2023/01/08 12:28:33;;;;;;;151.80;71.95;;;15.60;58.80;;;;;;5073355;28;20360;-76
2023/01/08 12:31:04;;;;;;;46.80;26.00;;;15.40;58.90;;;;;;5075233;28;20153;-78
2023/01/08 12:33:38;;;;;;;74.63;37.47;;;15.30;57.90;;;;;;5075667;28;20069;-77
2023/01/08 12:36:21;;;;;;;40.92;23.45;;;15.10;58.40;;;;;;5090544;28;20177;-78
2023/01/08 12:38:57;;;;;;;43.97;22.83;;;15.10;59.10;;;;;;5091194;28;20027;-76